createdAt,value
2018-09-29T00:00:28.489Z,0
2018-09-29T00:01:33.663Z,0
2018-09-29T00:02:39.109Z,0
2018-09-29T00:03:44.470Z,0
2018-09-29T00:04:49.956Z,0
2018-09-29T00:05:55.165Z,0
2018-09-29T00:07:00.814Z,0
2018-09-29T00:08:05.982Z,0
2018-09-29T00:09:10.568Z,0
2018-09-29T00:10:15.945Z,0
2018-09-29T00:11:20.439Z,0
2018-09-29T00:12:40.350Z,0
2018-09-29T00:13:45.505Z,0
2018-09-29T00:14:50.647Z,0
2018-09-29T00:15:55.750Z,0
2018-09-29T00:17:00.661Z,0
2018-09-29T00:18:05.243Z,0
2018-09-29T00:19:10.834Z,0
2018-09-29T00:20:16.232Z,0
2018-09-29T00:21:21.388Z,0
2018-09-29T00:22:26.641Z,0
2018-09-29T00:23:32.110Z,0
2018-09-29T00:24:37.549Z,0
2018-09-29T00:25:43.099Z,0
2018-09-29T00:26:48.317Z,0
2018-09-29T00:27:53.579Z,0
2018-09-29T00:28:59.069Z,0
2018-09-29T00:30:03.661Z,0
2018-09-29T00:31:08.852Z,0
2018-09-29T00:32:14.316Z,0
2018-09-29T00:33:19.886Z,0
2018-09-29T00:34:25.011Z,0
2018-09-29T00:35:30.236Z,0
2018-09-29T00:36:35.880Z,0
2018-09-29T00:37:40.837Z,0
2018-09-29T00:38:46.175Z,0
2018-09-29T00:39:51.617Z,0
2018-09-29T00:40:56.772Z,0
2018-09-29T00:42:02.268Z,0
2018-09-29T00:43:07.280Z,0
2018-09-29T00:44:13.097Z,0
2018-09-29T00:45:17.972Z,0
2018-09-29T00:46:23.863Z,0
2018-09-29T00:47:29.292Z,0
2018-09-29T00:48:34.493Z,0
2018-09-29T00:49:39.968Z,0
2018-09-29T00:50:44.852Z,0
2018-09-29T00:51:50.880Z,0
2018-09-29T00:52:56.362Z,0
2018-09-29T00:54:01.262Z,0
2018-09-29T00:55:06.429Z,0
2018-09-29T00:56:11.609Z,0
2018-09-29T00:57:17.039Z,0
2018-09-29T00:58:22.648Z,0
2018-09-29T00:59:28.133Z,0
2018-09-29T01:00:33.544Z,0
2018-09-29T01:01:38.704Z,0
2018-09-29T01:02:43.851Z,0
2018-09-29T01:03:49.527Z,0
2018-09-29T01:04:55.000Z,0
2018-09-29T01:06:00.270Z,0
2018-09-29T01:07:05.386Z,0
2018-09-29T01:08:10.332Z,0
2018-09-29T01:09:15.474Z,0
2018-09-29T01:10:20.972Z,0
2018-09-29T01:11:26.145Z,0
2018-09-29T01:12:32.005Z,0
2018-09-29T01:13:37.192Z,0
2018-09-29T01:14:42.794Z,0
2018-09-29T01:15:48.626Z,0
2018-09-29T01:16:53.778Z,0
2018-09-29T01:17:58.959Z,0
2018-09-29T01:19:04.860Z,0
2018-09-29T01:20:10.015Z,0
2018-09-29T01:21:14.607Z,0
2018-09-29T01:22:20.280Z,0
2018-09-29T01:23:25.705Z,0
2018-09-29T01:24:31.165Z,0
2018-09-29T01:25:36.635Z,0
2018-09-29T01:26:42.178Z,0
2018-09-29T01:27:47.709Z,0
2018-09-29T01:28:53.235Z,0
2018-09-29T01:29:58.691Z,0
2018-09-29T01:31:03.700Z,0
2018-09-29T01:32:09.259Z,0
2018-09-29T01:33:14.534Z,0
2018-09-29T01:34:20.317Z,0
2018-09-29T01:35:25.489Z,0
2018-09-29T01:36:31.191Z,0
2018-09-29T01:37:36.342Z,0
2018-09-29T01:38:41.777Z,0
2018-09-29T01:39:47.337Z,0
2018-09-29T01:40:52.680Z,0
2018-09-29T01:41:57.819Z,0
2018-09-29T01:43:03.783Z,0
2018-09-29T01:44:09.547Z,0
2018-09-29T01:45:14.976Z,0
2018-09-29T01:46:20.736Z,0
2018-09-29T01:47:26.238Z,0
2018-09-29T01:48:31.561Z,0
2018-09-29T01:49:37.065Z,0
2018-09-29T01:50:42.517Z,0
2018-09-29T01:51:48.169Z,0
2018-09-29T01:52:52.499Z,0
2018-09-29T01:53:57.683Z,0
2018-09-29T01:55:02.799Z,0
2018-09-29T01:56:08.324Z,0
2018-09-29T01:57:13.777Z,0
2018-09-29T01:58:19.505Z,0
2018-09-29T01:59:24.445Z,0
2018-09-29T02:00:30.111Z,0
2018-09-29T02:01:34.408Z,0
2018-09-29T02:02:39.580Z,0
2018-09-29T02:03:45.421Z,0
2018-09-29T02:04:50.856Z,0
2018-09-29T02:05:56.091Z,0
2018-09-29T02:07:02.048Z,0
2018-09-29T02:08:07.484Z,0
2018-09-29T02:09:13.331Z,0
2018-09-29T02:10:19.081Z,0
2018-09-29T02:11:24.225Z,0
2018-09-29T02:12:29.379Z,0
2018-09-29T02:13:34.550Z,0
2018-09-29T02:14:40.017Z,0
2018-09-29T02:15:45.689Z,0
2018-09-29T02:16:50.873Z,0
2018-09-29T02:17:56.048Z,0
2018-09-29T02:19:01.252Z,0
2018-09-29T02:20:06.135Z,0
2018-09-29T02:21:11.280Z,0
2018-09-29T02:22:16.675Z,0
2018-09-29T02:23:21.582Z,0
2018-09-29T02:24:27.417Z,0
2018-09-29T02:25:32.844Z,0
2018-09-29T02:26:38.007Z,0
2018-09-29T02:27:43.400Z,0
2018-09-29T02:28:48.346Z,0
2018-09-29T02:29:53.726Z,0
2018-09-29T02:30:59.128Z,0
2018-09-29T02:32:04.286Z,0
2018-09-29T02:33:09.379Z,0
2018-09-29T02:34:14.489Z,0
2018-09-29T02:35:19.363Z,0
2018-09-29T02:36:24.526Z,0
2018-09-29T02:37:45.078Z,0
2018-09-29T02:38:50.518Z,0
2018-09-29T02:39:55.937Z,0
2018-09-29T02:41:01.106Z,0
2018-09-29T02:42:06.083Z,0
2018-09-29T02:43:11.766Z,0
2018-09-29T02:44:16.982Z,0
2018-09-29T02:45:22.190Z,0
2018-09-29T02:46:28.180Z,0
2018-09-29T02:47:33.138Z,0
2018-09-29T02:48:38.909Z,0
2018-09-29T02:49:44.339Z,0
2018-09-29T02:50:49.520Z,0
2018-09-29T02:51:54.781Z,0
2018-09-29T02:53:00.209Z,0
2018-09-29T02:54:05.437Z,0
2018-09-29T02:55:11.322Z,0
2018-09-29T02:56:16.746Z,0
2018-09-29T02:57:22.292Z,0
2018-09-29T02:58:27.559Z,0
2018-09-29T02:59:33.046Z,0
2018-09-29T03:00:38.351Z,0
2018-09-29T03:01:43.793Z,0
2018-09-29T03:02:49.216Z,0
2018-09-29T03:03:54.631Z,0
2018-09-29T03:05:00.057Z,0
2018-09-29T03:06:05.284Z,0
2018-09-29T03:07:11.250Z,0
2018-09-29T03:08:17.005Z,0
2018-09-29T03:09:22.242Z,0
2018-09-29T03:10:27.437Z,0
2018-09-29T03:11:32.583Z,0
2018-09-29T03:12:38.004Z,0
2018-09-29T03:13:43.522Z,0
2018-09-29T03:14:48.952Z,0
2018-09-29T03:15:54.634Z,0
2018-09-29T03:16:59.504Z,0
2018-09-29T03:18:04.948Z,0
2018-09-29T03:19:10.098Z,0
2018-09-29T03:20:15.755Z,0
2018-09-29T03:21:20.622Z,0
2018-09-29T03:22:26.143Z,0
2018-09-29T03:23:31.614Z,0
2018-09-29T03:24:36.451Z,0
2018-09-29T03:25:41.994Z,0
2018-09-29T03:26:47.486Z,0
2018-09-29T03:27:52.879Z,0
2018-09-29T03:28:57.176Z,0
2018-09-29T03:30:02.423Z,0
2018-09-29T03:31:07.645Z,0
2018-09-29T03:32:13.111Z,0
2018-09-29T03:33:17.701Z,0
2018-09-29T03:34:22.986Z,0
2018-09-29T03:35:28.414Z,0
2018-09-29T03:36:34.555Z,0
2018-09-29T03:37:39.420Z,0
2018-09-29T03:38:44.851Z,0
2018-09-29T03:39:50.551Z,0
2018-09-29T03:40:55.976Z,0
2018-09-29T03:42:00.986Z,0
2018-09-29T03:43:06.887Z,0
2018-09-29T03:44:11.794Z,0
2018-09-29T03:45:17.114Z,0
2018-09-29T03:46:22.851Z,0
2018-09-29T03:47:27.726Z,0
2018-09-29T03:48:32.900Z,0
2018-09-29T03:49:37.505Z,0
2018-09-29T03:50:42.977Z,0
2018-09-29T03:51:48.956Z,0
2018-09-29T03:52:53.626Z,0
2018-09-29T03:53:59.057Z,0
2018-09-29T03:55:03.881Z,0
2018-09-29T03:56:08.488Z,0
2018-09-29T03:57:13.661Z,0
2018-09-29T03:58:19.525Z,0
2018-09-29T03:59:24.517Z,0
2018-09-29T04:00:30.319Z,0
2018-09-29T04:01:35.478Z,0
2018-09-29T04:02:40.489Z,0
2018-09-29T04:03:46.181Z,0
2018-09-29T04:04:51.374Z,0
2018-09-29T04:05:56.836Z,0
2018-09-29T04:07:02.387Z,0
2018-09-29T04:08:07.546Z,0
2018-09-29T04:09:13.027Z,0
2018-09-29T04:10:18.413Z,0
2018-09-29T04:11:23.292Z,0
2018-09-29T04:12:29.099Z,0
2018-09-29T04:13:33.697Z,0
2018-09-29T04:14:39.208Z,0
2018-09-29T04:15:44.759Z,0
2018-09-29T04:16:49.909Z,0
2018-09-29T04:17:54.218Z,0
2018-09-29T04:18:59.814Z,0
2018-09-29T04:20:05.069Z,0
2018-09-29T04:21:10.229Z,0
2018-09-29T04:22:15.913Z,0
2018-09-29T04:23:21.362Z,0
2018-09-29T04:24:27.300Z,0
2018-09-29T04:25:32.769Z,0
2018-09-29T04:26:37.349Z,0
2018-09-29T04:27:43.160Z,0
2018-09-29T04:28:48.317Z,0
2018-09-29T04:29:53.192Z,0
2018-09-29T04:30:58.754Z,0
2018-09-29T04:32:03.049Z,0
2018-09-29T04:33:08.220Z,0
2018-09-29T04:34:14.017Z,0
2018-09-29T04:35:18.903Z,0
2018-09-29T04:36:24.075Z,0
2018-09-29T04:37:44.128Z,0
2018-09-29T04:38:49.350Z,0
2018-09-29T04:39:55.127Z,0
2018-09-29T04:41:00.738Z,0
2018-09-29T04:42:05.957Z,0
2018-09-29T04:43:11.792Z,0
2018-09-29T04:44:17.493Z,0
2018-09-29T04:45:22.989Z,0
2018-09-29T04:46:28.829Z,0
2018-09-29T04:47:34.034Z,0
2018-09-29T04:48:39.646Z,0
2018-09-29T04:49:44.519Z,0
2018-09-29T04:50:50.055Z,0
2018-09-29T04:51:55.607Z,0
2018-09-29T04:53:00.786Z,0
2018-09-29T04:54:05.407Z,0
2018-09-29T04:55:10.855Z,0
2018-09-29T04:56:16.020Z,0
2018-09-29T04:57:20.947Z,0
2018-09-29T04:58:26.203Z,0
2018-09-29T04:59:31.421Z,0
2018-09-29T05:00:36.824Z,0
2018-09-29T05:01:41.688Z,0
2018-09-29T05:02:47.118Z,0
2018-09-29T05:03:52.915Z,0
2018-09-29T05:04:57.807Z,0
2018-09-29T05:06:02.959Z,0
2018-09-29T05:07:08.594Z,0
2018-09-29T05:08:13.463Z,0
2018-09-29T05:09:18.075Z,0
2018-09-29T05:10:23.869Z,0
2018-09-29T05:11:29.361Z,0
2018-09-29T05:12:35.006Z,0
2018-09-29T05:13:40.492Z,0
2018-09-29T05:14:45.389Z,0
2018-09-29T05:15:51.102Z,0
2018-09-29T05:16:56.323Z,0
2018-09-29T05:18:01.473Z,0
2018-09-29T05:19:06.859Z,0
2018-09-29T05:20:12.414Z,0
2018-09-29T05:21:17.845Z,0
2018-09-29T05:22:23.151Z,0
2018-09-29T05:23:28.382Z,0
2018-09-29T05:24:33.780Z,0
2018-09-29T05:25:39.278Z,0
2018-09-29T05:26:44.767Z,0
2018-09-29T05:27:50.319Z,0
2018-09-29T05:28:55.194Z,0
2018-09-29T05:30:00.367Z,0
2018-09-29T05:31:05.206Z,0
2018-09-29T05:32:10.690Z,0
2018-09-29T05:33:15.922Z,0
2018-09-29T05:34:21.619Z,0
2018-09-29T05:35:25.978Z,0
2018-09-29T05:36:32.032Z,0
2018-09-29T05:37:37.182Z,0
2018-09-29T05:38:42.655Z,0
2018-09-29T05:39:48.558Z,0
2018-09-29T05:40:53.449Z,0
2018-09-29T05:41:58.599Z,0
2018-09-29T05:43:02.978Z,313
2018-09-29T05:44:07.566Z,313
2018-09-29T05:45:12.990Z,308
2018-09-29T05:46:18.367Z,313
2018-09-29T05:47:23.880Z,308
2018-09-29T05:48:29.760Z,323
2018-09-29T05:49:35.007Z,308
2018-09-29T05:50:40.271Z,323
2018-09-29T05:51:45.976Z,323
2018-09-29T05:52:50.843Z,323
2018-09-29T05:53:56.234Z,323
2018-09-29T05:55:02.297Z,323
2018-09-29T05:56:07.720Z,323
2018-09-29T05:57:12.976Z,308
2018-09-29T05:58:18.529Z,323
2018-09-29T05:59:23.710Z,323
2018-09-29T06:00:29.371Z,308
2018-09-29T06:01:34.681Z,308
2018-09-29T06:02:39.888Z,323
2018-09-29T06:03:45.691Z,323
2018-09-29T06:04:51.158Z,308
2018-09-29T06:05:57.083Z,308
2018-09-29T06:07:02.584Z,308
2018-09-29T06:08:07.848Z,323
2018-09-29T06:09:13.061Z,323
2018-09-29T06:10:19.021Z,308
2018-09-29T06:11:23.614Z,323
2018-09-29T06:12:28.932Z,308
2018-09-29T06:13:34.396Z,338
2018-09-29T06:14:39.563Z,338
2018-09-29T06:15:45.072Z,323
2018-09-29T06:16:50.317Z,338
2018-09-29T06:17:54.911Z,338
2018-09-29T06:19:00.608Z,323
2018-09-29T06:20:05.767Z,338
2018-09-29T06:21:10.423Z,317
2018-09-29T06:22:16.310Z,338
2018-09-29T06:23:21.756Z,333
2018-09-29T06:24:27.319Z,333
2018-09-29T06:25:32.224Z,338
2018-09-29T06:26:36.547Z,333
2018-09-29T06:27:41.939Z,333
2018-09-29T06:28:47.416Z,317
2018-09-29T06:29:52.566Z,333
2018-09-29T06:30:57.959Z,333
2018-09-29T06:32:03.223Z,333
2018-09-29T06:33:08.724Z,348
2018-09-29T06:34:14.268Z,348
2018-09-29T06:35:19.899Z,333
2018-09-29T06:36:40.122Z,348
2018-09-29T06:37:45.263Z,333
2018-09-29T06:38:50.696Z,338
2018-09-29T06:39:56.480Z,323
2018-09-29T06:41:01.468Z,308
2018-09-29T06:42:06.096Z,333
2018-09-29T06:43:11.845Z,308
2018-09-29T06:44:17.269Z,333
2018-09-29T06:45:22.448Z,333
2018-09-29T06:46:27.929Z,348
2018-09-29T06:47:33.171Z,348
2018-09-29T06:48:39.027Z,348
2018-09-29T06:49:44.176Z,348
2018-09-29T06:50:49.416Z,348
2018-09-29T06:51:54.893Z,363
2018-09-29T06:52:59.772Z,363
2018-09-29T06:54:04.921Z,363
2018-09-29T06:55:10.444Z,378
2018-09-29T06:56:15.966Z,348
2018-09-29T06:57:21.115Z,378
2018-09-29T06:58:26.814Z,348
2018-09-29T06:59:32.270Z,348
2018-09-29T07:00:38.019Z,378
2018-09-29T07:01:43.199Z,378
2018-09-29T07:02:48.586Z,358
2018-09-29T07:03:54.150Z,363
2018-09-29T07:04:59.125Z,358
2018-09-29T07:06:04.634Z,363
2018-09-29T07:07:10.097Z,358
2018-09-29T07:08:15.584Z,358
2018-09-29T07:09:21.017Z,358
2018-09-29T07:10:26.773Z,358
2018-09-29T07:11:31.954Z,342
2018-09-29T07:12:37.357Z,358
2018-09-29T07:13:42.512Z,358
2018-09-29T07:14:47.577Z,342
2018-09-29T07:15:52.738Z,363
2018-09-29T07:16:57.936Z,358
2018-09-29T07:18:03.284Z,358
2018-09-29T07:19:09.033Z,342
2018-09-29T07:20:14.561Z,358
2018-09-29T07:21:19.706Z,373
2018-09-29T07:22:25.733Z,342
2018-09-29T07:23:30.611Z,358
2018-09-29T07:24:36.112Z,358
2018-09-29T07:25:41.587Z,373
2018-09-29T07:26:46.743Z,358
2018-09-29T07:27:52.435Z,358
2018-09-29T07:28:57.659Z,373
2018-09-29T07:30:02.576Z,358
2018-09-29T07:31:07.354Z,373
2018-09-29T07:32:12.792Z,373
2018-09-29T07:33:17.654Z,358
2018-09-29T07:34:23.293Z,358
2018-09-29T07:35:28.478Z,358
2018-09-29T07:36:34.546Z,373
2018-09-29T07:37:39.124Z,358
2018-09-29T07:38:44.281Z,358
2018-09-29T07:39:50.131Z,358
2018-09-29T07:40:55.355Z,358
2018-09-29T07:42:00.290Z,373
2018-09-29T07:43:06.186Z,373
2018-09-29T07:44:11.656Z,358
2018-09-29T07:45:16.930Z,342
2018-09-29T07:46:22.216Z,342
2018-09-29T07:47:27.705Z,327
2018-09-29T07:48:33.124Z,312
2018-09-29T07:49:38.309Z,327
2018-09-29T07:50:43.753Z,342
2018-09-29T07:51:49.128Z,327
2018-09-29T07:52:54.035Z,342
2018-09-29T07:53:58.930Z,348
2018-09-29T07:55:04.213Z,342
2018-09-29T07:56:09.196Z,327
2018-09-29T07:57:14.464Z,327
2018-09-29T07:58:19.691Z,342
2018-09-29T07:59:25.167Z,348
2018-09-29T08:00:31.147Z,333
2018-09-29T08:01:36.702Z,348
2018-09-29T08:02:42.346Z,348
2018-09-29T08:03:47.646Z,348
2018-09-29T08:04:52.658Z,333
2018-09-29T08:05:57.804Z,348
2018-09-29T08:07:03.294Z,342
2018-09-29T08:08:08.741Z,358
2018-09-29T08:09:14.174Z,342
2018-09-29T08:10:20.142Z,333
2018-09-29T08:11:25.108Z,348
2018-09-29T08:12:30.985Z,348
2018-09-29T08:13:36.174Z,348
2018-09-29T08:14:41.434Z,358
2018-09-29T08:15:47.247Z,342
2018-09-29T08:16:52.698Z,342
2018-09-29T08:17:57.585Z,348
2018-09-29T08:19:02.869Z,348
2018-09-29T08:20:07.735Z,363
2018-09-29T08:21:12.964Z,342
2018-09-29T08:22:18.357Z,342
2018-09-29T08:23:23.286Z,363
2018-09-29T08:24:28.877Z,342
2018-09-29T08:25:33.857Z,317
2018-09-29T08:26:38.815Z,363
2018-09-29T08:27:44.663Z,342
2018-09-29T08:28:50.091Z,363
2018-09-29T08:29:55.587Z,342
2018-09-29T08:31:01.415Z,348
2018-09-29T08:32:06.595Z,342
2018-09-29T08:33:12.027Z,348
2018-09-29T08:34:18.338Z,358
2018-09-29T08:35:23.533Z,342
2018-09-29T08:36:29.658Z,358
2018-09-29T08:37:34.811Z,342
2018-09-29T08:38:40.039Z,342
2018-09-29T08:39:45.439Z,358
2018-09-29T08:40:50.899Z,317
2018-09-29T08:41:56.077Z,358
2018-09-29T08:43:01.502Z,342
2018-09-29T08:44:06.194Z,373
2018-09-29T08:45:11.099Z,352
2018-09-29T08:46:16.245Z,373
2018-09-29T08:47:21.742Z,367
2018-09-29T08:48:42.069Z,383
2018-09-29T08:49:47.280Z,388
2018-09-29T08:50:52.457Z,363
2018-09-29T08:51:58.136Z,363
2018-09-29T08:53:03.745Z,358
2018-09-29T08:54:08.913Z,373
2018-09-29T08:55:14.821Z,358
2018-09-29T08:56:20.283Z,373
2018-09-29T08:57:26.282Z,367
2018-09-29T08:58:31.296Z,342
2018-09-29T08:59:36.476Z,342
2018-09-29T09:00:42.023Z,358
2018-09-29T09:01:47.470Z,358
2018-09-29T09:02:52.899Z,358
2018-09-29T09:03:58.874Z,302
2018-09-29T09:05:04.427Z,327
2018-09-29T09:06:09.297Z,358
2018-09-29T09:07:14.703Z,367
2018-09-29T09:08:20.185Z,358
2018-09-29T09:09:40.553Z,373
2018-09-29T09:10:45.831Z,373
2018-09-29T09:11:50.460Z,373
2018-09-29T09:12:55.877Z,358
2018-09-29T09:14:01.091Z,327
2018-09-29T09:15:05.708Z,358
2018-09-29T09:16:11.564Z,302
2018-09-29T09:17:16.719Z,373
2018-09-29T09:18:22.150Z,398
2018-09-29T09:19:28.217Z,358
2018-09-29T09:20:33.425Z,383
2018-09-29T09:21:39.157Z,367
2018-09-29T09:22:44.458Z,353
2018-09-29T09:23:49.810Z,338
2018-09-29T09:24:55.553Z,338
2018-09-29T09:26:00.737Z,338
2018-09-29T09:27:06.430Z,323
2018-09-29T09:28:12.417Z,338
2018-09-29T09:29:17.568Z,373
2018-09-29T09:30:22.703Z,398
2018-09-29T09:31:28.348Z,367
2018-09-29T09:32:33.493Z,353
2018-09-29T09:33:39.205Z,338
2018-09-29T09:34:44.203Z,358
2018-09-29T09:35:49.067Z,348
2018-09-29T09:36:54.340Z,373
2018-09-29T09:37:59.494Z,333
2018-09-29T09:39:04.649Z,323
2018-09-29T09:40:10.678Z,352
2018-09-29T09:41:16.155Z,398
2018-09-29T09:42:21.307Z,367
2018-09-29T09:43:27.552Z,353
2018-09-29T09:44:32.987Z,323
2018-09-29T09:45:38.688Z,338
2018-09-29T09:46:44.182Z,367
2018-09-29T09:47:49.346Z,367
2018-09-29T09:48:55.174Z,363
2018-09-29T09:50:00.056Z,352
2018-09-29T09:51:05.259Z,333
2018-09-29T09:52:10.526Z,317
2018-09-29T09:53:15.133Z,338
2018-09-29T09:54:19.990Z,342
2018-09-29T09:55:25.311Z,358
2018-09-29T09:56:30.836Z,373
2018-09-29T09:57:36.298Z,358
2018-09-29T09:58:41.446Z,373
2018-09-29T09:59:46.598Z,358
2018-09-29T10:00:52.030Z,358
2018-09-29T10:01:57.530Z,358
2018-09-29T10:03:02.696Z,342
2018-09-29T10:04:08.110Z,342
2018-09-29T10:05:13.035Z,352
2018-09-29T10:06:18.077Z,358
2018-09-29T10:07:23.660Z,358
2018-09-29T10:08:28.807Z,373
2018-09-29T10:09:34.230Z,342
2018-09-29T10:10:38.807Z,352
2018-09-29T10:11:44.011Z,367
2018-09-29T10:12:48.980Z,373
2018-09-29T10:13:54.415Z,373
2018-09-29T10:14:59.914Z,352
2018-09-29T10:16:05.259Z,373
2018-09-29T10:17:10.452Z,358
2018-09-29T10:18:15.894Z,352
2018-09-29T10:19:21.325Z,358
2018-09-29T10:20:26.189Z,358
2018-09-29T10:21:32.193Z,367
2018-09-29T10:22:37.576Z,367
2018-09-29T10:23:42.462Z,383
2018-09-29T10:24:48.252Z,367
2018-09-29T10:25:53.404Z,358
2018-09-29T10:26:58.547Z,342
2018-09-29T10:28:04.400Z,383
2018-09-29T10:29:09.864Z,358
2018-09-29T10:30:15.317Z,352
2018-09-29T10:31:21.116Z,352
2018-09-29T10:32:25.700Z,367
2018-09-29T10:33:31.089Z,373
2018-09-29T10:34:36.585Z,373
2018-09-29T10:35:42.046Z,358
2018-09-29T10:36:48.232Z,373
2018-09-29T10:37:52.611Z,358
2018-09-29T10:38:58.169Z,373
2018-09-29T10:40:02.836Z,358
2018-09-29T10:41:08.041Z,358
2018-09-29T10:42:13.264Z,337
2018-09-29T10:43:19.286Z,358
2018-09-29T10:44:23.910Z,367
2018-09-29T10:45:29.942Z,367
2018-09-29T10:46:35.146Z,383
2018-09-29T10:47:40.305Z,352
2018-09-29T10:48:45.851Z,367
2018-09-29T10:49:51.015Z,367
2018-09-29T10:50:56.449Z,383
2018-09-29T10:52:01.670Z,383
2018-09-29T10:53:06.484Z,367
2018-09-29T10:54:11.470Z,352
2018-09-29T10:55:16.601Z,383
2018-09-29T10:56:21.475Z,358
2018-09-29T10:57:27.236Z,367
2018-09-29T10:58:32.388Z,358
2018-09-29T10:59:37.819Z,352
2018-09-29T11:00:43.429Z,383
2018-09-29T11:01:48.920Z,377
2018-09-29T11:02:53.787Z,398
2018-09-29T11:03:59.466Z,398
2018-09-29T11:05:04.777Z,398
2018-09-29T11:06:10.752Z,377
2018-09-29T11:07:16.315Z,398
2018-09-29T11:08:21.522Z,383
2018-09-29T11:09:41.736Z,383
2018-09-29T11:10:46.930Z,398
2018-09-29T11:11:52.104Z,398
2018-09-29T11:12:57.344Z,377
2018-09-29T11:14:02.425Z,377
2018-09-29T11:15:07.298Z,383
2018-09-29T11:16:13.091Z,398
2018-09-29T11:17:18.244Z,383
2018-09-29T11:18:23.809Z,398
2018-09-29T11:19:44.307Z,392
2018-09-29T11:20:49.995Z,377
2018-09-29T11:21:56.111Z,392
2018-09-29T11:23:01.548Z,392
2018-09-29T11:24:07.026Z,377
2018-09-29T11:25:12.743Z,377
2018-09-29T11:26:17.886Z,398
2018-09-29T11:27:23.079Z,377
2018-09-29T11:28:29.009Z,398
2018-09-29T11:29:34.468Z,392
2018-09-29T11:30:40.480Z,392
2018-09-29T11:31:45.634Z,377
2018-09-29T11:32:51.078Z,377
2018-09-29T11:33:57.144Z,392
2018-09-29T11:35:02.297Z,392
2018-09-29T11:36:06.935Z,392
2018-09-29T11:37:12.785Z,392
2018-09-29T11:38:17.957Z,392
2018-09-29T11:39:23.104Z,377
2018-09-29T11:40:29.230Z,377
2018-09-29T11:41:34.206Z,377
2018-09-29T11:42:40.047Z,377
2018-09-29T11:43:45.562Z,392
2018-09-29T11:44:51.249Z,392
2018-09-29T11:45:57.372Z,398
2018-09-29T11:47:02.277Z,377
2018-09-29T11:48:07.432Z,377
2018-09-29T11:49:12.993Z,383
2018-09-29T11:50:18.484Z,383
2018-09-29T11:51:23.918Z,398
2018-09-29T11:52:29.701Z,383
2018-09-29T11:53:34.645Z,377
2018-09-29T11:54:40.472Z,398
2018-09-29T11:55:46.008Z,383
2018-09-29T11:56:51.477Z,383
2018-09-29T11:57:57.034Z,367
2018-09-29T11:59:02.468Z,342
2018-09-29T12:00:07.897Z,383
2018-09-29T12:01:13.539Z,383
2018-09-29T12:02:19.130Z,337
2018-09-29T12:04:45.063Z,352
2018-09-29T12:05:50.055Z,352
2018-09-29T12:06:55.833Z,383
2018-09-29T12:08:01.243Z,342
2018-09-29T12:09:06.702Z,327
2018-09-29T12:10:12.489Z,383
2018-09-29T12:11:18.311Z,367
2018-09-29T12:12:23.479Z,367
2018-09-29T12:13:29.246Z,348
2018-09-29T12:14:34.398Z,352
2018-09-29T12:15:39.711Z,373
2018-09-29T12:16:44.586Z,333
2018-09-29T12:17:50.105Z,367
2018-09-29T12:18:55.656Z,383
2018-09-29T12:20:01.131Z,373
2018-09-29T12:21:05.595Z,352
2018-09-29T12:22:11.556Z,352
2018-09-29T12:23:16.510Z,383
2018-09-29T12:24:21.759Z,367
2018-09-29T12:25:41.827Z,358
2018-09-29T12:26:47.363Z,352
2018-09-29T12:27:52.489Z,373
2018-09-29T12:28:57.091Z,367
2018-09-29T12:30:02.343Z,367
2018-09-29T12:31:07.183Z,383
2018-09-29T12:32:12.617Z,367
2018-09-29T12:33:17.821Z,373
2018-09-29T12:34:22.943Z,383
2018-09-29T12:35:27.797Z,367
2018-09-29T12:36:33.491Z,367
2018-09-29T12:37:38.942Z,373
2018-09-29T12:38:44.168Z,373
2018-09-29T12:39:49.709Z,367
2018-09-29T12:40:54.878Z,358
2018-09-29T12:42:00.319Z,373
2018-09-29T12:43:05.192Z,367
2018-09-29T12:44:10.427Z,373
2018-09-29T12:45:15.297Z,358
2018-09-29T12:46:20.828Z,373
2018-09-29T12:47:25.741Z,348
2018-09-29T12:48:31.829Z,373
2018-09-29T12:49:37.267Z,367
2018-09-29T12:50:42.726Z,367
2018-09-29T12:51:47.857Z,367
2018-09-29T12:52:53.614Z,383
2018-09-29T12:53:58.200Z,367
2018-09-29T12:55:03.568Z,367
2018-09-29T12:56:08.774Z,367
2018-09-29T12:57:13.951Z,367
2018-09-29T12:58:19.417Z,373
2018-09-29T12:59:24.304Z,373
2018-09-29T13:00:28.949Z,373
2018-09-29T13:01:34.443Z,373
2018-09-29T13:02:39.597Z,388
2018-09-29T13:03:45.053Z,388
2018-09-29T13:04:50.214Z,388
2018-09-29T13:05:55.374Z,373
2018-09-29T13:07:00.839Z,358
2018-09-29T13:08:05.988Z,373
2018-09-29T13:09:11.273Z,358
2018-09-29T13:10:16.751Z,373
2018-09-29T13:11:22.188Z,358
2018-09-29T13:12:27.638Z,358
2018-09-29T13:13:32.318Z,373
2018-09-29T13:14:36.968Z,358
2018-09-29T13:15:42.330Z,373
2018-09-29T13:16:47.665Z,358
2018-09-29T13:17:52.923Z,363
2018-09-29T13:18:58.555Z,323
2018-09-29T13:20:03.730Z,348
2018-09-29T13:21:08.595Z,358
2018-09-29T13:22:14.140Z,358
2018-09-29T13:23:19.590Z,363
2018-09-29T13:24:24.195Z,358
2018-09-29T13:25:44.690Z,342
2018-09-29T13:26:49.856Z,363
2018-09-29T13:27:55.160Z,333
2018-09-29T13:29:00.327Z,333
2018-09-29T13:30:05.788Z,323
2018-09-29T13:31:10.927Z,323
2018-09-29T13:32:15.852Z,323
2018-09-29T13:33:20.958Z,333
2018-09-29T13:34:26.409Z,308
2018-09-29T13:35:31.871Z,317
2018-09-29T13:36:37.307Z,333
2018-09-29T13:37:42.740Z,363
2018-09-29T13:38:48.212Z,333
2018-09-29T13:39:53.912Z,342
2018-09-29T13:40:58.767Z,333
2018-09-29T13:42:03.997Z,358
2018-09-29T13:43:09.130Z,358
2018-09-29T13:44:14.324Z,358
2018-09-29T13:45:19.214Z,358
2018-09-29T13:46:24.993Z,358
2018-09-29T13:47:30.184Z,342
2018-09-29T13:48:35.942Z,358
2018-09-29T13:49:41.085Z,373
2018-09-29T13:50:46.321Z,358
2018-09-29T13:51:51.876Z,358
2018-09-29T13:52:56.924Z,373
2018-09-29T13:54:01.855Z,342
2018-09-29T13:55:07.248Z,358
2018-09-29T13:56:12.707Z,373
2018-09-29T13:57:17.644Z,342
2018-09-29T13:58:22.760Z,373
2018-09-29T13:59:27.931Z,358
2018-09-29T14:00:33.055Z,358
2018-09-29T14:01:37.930Z,88
2018-09-29T14:02:43.085Z,88
2018-09-29T14:03:48.641Z,72
2018-09-29T14:04:53.860Z,72
2018-09-29T14:05:59.331Z,88
2018-09-29T14:07:04.736Z,72
2018-09-29T14:08:09.935Z,72
2018-09-29T14:09:15.120Z,72
2018-09-29T14:10:20.521Z,72
2018-09-29T14:11:25.673Z,88
2018-09-29T14:12:31.222Z,88
2018-09-29T14:13:36.092Z,88
2018-09-29T14:14:41.351Z,88
2018-09-29T14:15:47.201Z,88
2018-09-29T14:16:52.342Z,88
2018-09-29T14:17:57.491Z,88
2018-09-29T14:19:02.807Z,62
2018-09-29T14:20:07.957Z,62
2018-09-29T14:21:12.874Z,62
2018-09-29T14:22:18.553Z,62
2018-09-29T14:23:23.693Z,62
2018-09-29T14:24:29.880Z,79
2018-09-29T14:25:35.069Z,79
2018-09-29T14:26:39.987Z,79
2018-09-29T14:27:45.837Z,79
2018-09-29T14:28:51.302Z,79
2018-09-29T14:29:55.669Z,79
2018-09-29T14:31:01.547Z,79
2018-09-29T14:32:06.757Z,79
2018-09-29T14:33:11.909Z,79
2018-09-29T14:34:17.447Z,79
2018-09-29T14:35:22.713Z,79
2018-09-29T14:36:28.687Z,79
2018-09-29T14:37:33.555Z,95
2018-09-29T14:38:38.712Z,95
2018-09-29T14:39:44.530Z,95
2018-09-29T14:40:49.679Z,95
2018-09-29T14:41:55.476Z,95
2018-09-29T14:43:01.583Z,95
2018-09-29T14:44:06.489Z,95
2018-09-29T14:45:12.059Z,95
2018-09-29T14:46:17.553Z,95
2018-09-29T14:47:22.434Z,95
2018-09-29T14:48:27.183Z,86
2018-09-29T14:49:31.760Z,86
2018-09-29T14:50:36.902Z,86
2018-09-29T14:51:42.457Z,86
2018-09-29T14:52:47.613Z,103
2018-09-29T14:53:53.089Z,103
2018-09-29T14:54:58.408Z,103
2018-09-29T14:56:03.275Z,103
2018-09-29T14:57:08.796Z,119
2018-09-29T14:58:13.931Z,119
2018-09-29T14:59:19.525Z,92
2018-09-29T15:01:45.041Z,110
2018-09-29T15:02:49.912Z,110
2018-09-29T15:03:55.506Z,110
2018-09-29T15:05:00.826Z,110
2018-09-29T15:06:05.978Z,127
2018-09-29T15:07:11.850Z,127
2018-09-29T15:08:17.301Z,127
2018-09-29T15:09:22.682Z,143
2018-09-29T15:10:27.988Z,127
2018-09-29T15:11:33.131Z,127
2018-09-29T15:12:38.723Z,127
2018-09-29T15:13:43.620Z,127
2018-09-29T15:14:48.791Z,127
2018-09-29T15:15:54.470Z,127
2018-09-29T15:16:59.918Z,127
2018-09-29T15:18:05.101Z,127
2018-09-29T15:19:10.999Z,127
2018-09-29T15:20:16.550Z,127
2018-09-29T15:21:20.913Z,127
2018-09-29T15:22:26.069Z,127
2018-09-29T15:23:31.250Z,127
2018-09-29T15:24:36.760Z,110
2018-09-29T15:25:41.361Z,110
2018-09-29T15:26:46.313Z,110
2018-09-29T15:27:51.713Z,127
2018-09-29T15:28:57.158Z,127
2018-09-29T15:30:02.024Z,127